createdAt,value
2023-07-26T00:02:18.818Z,99401.72
2023-07-26T00:04:46.392Z,99402.00
2023-07-26T00:07:13.989Z,99409.47
2023-07-26T00:09:41.635Z,99400.78
2023-07-26T00:12:09.232Z,99396.19
2023-07-26T00:14:36.775Z,99402.25
2023-07-26T00:17:04.400Z,99402.84
2023-07-26T00:19:31.995Z,99399.94
2023-07-26T00:22:01.496Z,99396.72
2023-07-26T00:24:29.220Z,99394.50
2023-07-26T00:26:56.843Z,99395.63
2023-07-26T00:29:25.738Z,99400.28
2023-07-26T00:31:53.793Z,99395.94
2023-07-26T00:34:21.597Z,99396.91
2023-07-26T00:36:49.186Z,99401.56
2023-07-26T00:39:16.804Z,99399.75
2023-07-26T00:41:44.411Z,99397.06
2023-07-26T00:44:12.067Z,99397.75
2023-07-26T00:46:39.909Z,99400.28
2023-07-26T00:49:07.587Z,99400.97
2023-07-26T00:51:35.509Z,99402.38
2023-07-26T00:54:05.129Z,99402.91
2023-07-26T00:56:33.089Z,99404.44
2023-07-26T00:59:00.874Z,99411.31
2023-07-26T01:01:28.560Z,99408.50
2023-07-26T01:03:56.164Z,99401.16
2023-07-26T01:06:23.712Z,99408.91
2023-07-26T01:08:51.288Z,99405.91
2023-07-26T01:11:18.878Z,99401.16
2023-07-26T01:13:46.471Z,99400.00
2023-07-26T01:16:14.540Z,99402.50
2023-07-26T01:18:42.099Z,99405.03
2023-07-26T01:21:09.692Z,99407.44
2023-07-26T01:23:39.687Z,99407.44
2023-07-26T01:26:07.464Z,99406.44
2023-07-26T01:28:35.094Z,99411.78
2023-07-26T01:31:02.860Z,99406.44
2023-07-26T01:33:30.453Z,99411.47
2023-07-26T01:35:58.020Z,99405.81
2023-07-26T01:38:25.646Z,99416.09
2023-07-26T01:40:53.286Z,99412.25
2023-07-26T01:43:20.877Z,99413.78
2023-07-26T01:45:48.515Z,99411.78
2023-07-26T01:48:16.115Z,99410.63
2023-07-26T01:50:43.676Z,99412.50
2023-07-26T01:53:11.410Z,99422.88
2023-07-26T01:55:39.017Z,99415.84
2023-07-26T01:58:06.571Z,99412.16
2023-07-26T02:00:35.205Z,99407.69
2023-07-26T02:03:02.751Z,99408.50
2023-07-26T02:05:30.358Z,99409.63
2023-07-26T02:07:57.977Z,99409.09
2023-07-26T02:10:25.514Z,99405.22
2023-07-26T02:12:53.125Z,99412.88
2023-07-26T02:15:21.409Z,99402.78
2023-07-26T02:17:49.137Z,99410.38
2023-07-26T02:20:16.753Z,99408.16
2023-07-26T02:22:44.709Z,99412.09
2023-07-26T02:25:12.462Z,99414.94
2023-07-26T02:27:40.042Z,99415.06
2023-07-26T02:30:07.648Z,99414.25
2023-07-26T02:32:35.282Z,99412.53
2023-07-26T02:35:02.857Z,99412.53
2023-07-26T02:37:30.639Z,99412.41
2023-07-26T02:39:58.164Z,99408.47
2023-07-26T02:42:26.865Z,99418.00
2023-07-26T02:44:54.848Z,99412.53
2023-07-26T02:47:22.523Z,99405.91
2023-07-26T02:49:50.459Z,99410.78
2023-07-26T02:52:18.066Z,99405.97
2023-07-26T02:54:45.639Z,99414.53
2023-07-26T02:57:13.257Z,99415.91
2023-07-26T02:59:40.867Z,99415.63
2023-07-26T03:02:08.685Z,99414.31
2023-07-26T03:04:36.830Z,99407.97
2023-07-26T03:07:04.440Z,99406.97
2023-07-26T03:09:32.027Z,99412.16
2023-07-26T03:11:59.588Z,99409.50
2023-07-26T03:14:27.211Z,99407.69
2023-07-26T03:16:56.532Z,99414.72
2023-07-26T03:19:27.810Z,99413.72
2023-07-26T03:21:55.400Z,99408.22
2023-07-26T03:24:23.004Z,99415.09
2023-07-26T03:26:52.109Z,99426.47
2023-07-26T03:29:19.672Z,99465.28
2023-07-26T03:31:47.206Z,99472.16
2023-07-26T03:34:14.894Z,99462.94
2023-07-26T03:36:42.498Z,99459.50
2023-07-26T03:39:10.317Z,99449.97
2023-07-26T03:41:37.903Z,99448.22
2023-07-26T03:44:05.470Z,99440.25
2023-07-26T03:46:33.480Z,99445.31
2023-07-26T03:49:01.668Z,99445.59
2023-07-26T03:51:29.600Z,99438.03
2023-07-26T03:53:57.161Z,99438.16
2023-07-26T03:56:24.764Z,99430.47
2023-07-26T03:58:52.334Z,99438.63
2023-07-26T04:01:19.950Z,99437.78
2023-07-26T04:03:47.655Z,99438.78
2023-07-26T04:06:15.251Z,99439.63
2023-07-26T04:08:42.873Z,99443.00
2023-07-26T04:11:10.862Z,99438.34
2023-07-26T04:13:38.412Z,99442.56
2023-07-26T04:16:05.989Z,99442.38
2023-07-26T04:18:33.602Z,99433.81
2023-07-26T04:21:01.138Z,99440.59
2023-07-26T04:23:28.657Z,99443.19
2023-07-26T04:25:56.226Z,99442.06
2023-07-26T04:28:23.900Z,99442.66
2023-07-26T04:30:53.062Z,99443.09
2023-07-26T04:33:22.638Z,99449.44
2023-07-26T04:35:50.203Z,99454.78
2023-07-26T04:38:17.797Z,99448.44
2023-07-26T04:40:47.489Z,99448.44
2023-07-26T04:43:15.098Z,99449.13
2023-07-26T04:45:42.644Z,99455.88
2023-07-26T04:48:10.281Z,99480.34
2023-07-26T04:50:37.956Z,99476.91
2023-07-26T04:53:05.586Z,99468.88
2023-07-26T04:55:33.159Z,99477.97
2023-07-26T04:58:00.680Z,99484.69
2023-07-26T05:00:28.257Z,99488.09
2023-07-26T05:02:55.900Z,99490.03
2023-07-26T05:05:23.672Z,99496.53
2023-07-26T05:07:51.213Z,99487.00
2023-07-26T05:10:18.821Z,99489.78
2023-07-26T05:12:46.454Z,99493.31
2023-07-26T05:15:14.925Z,99496.97
2023-07-26T05:17:42.636Z,99491.78
2023-07-26T05:20:10.183Z,99495.28
2023-07-26T05:22:37.813Z,99489.94
2023-07-26T05:25:05.470Z,99500.47
2023-07-26T05:27:33.085Z,99493.16
2023-07-26T05:30:00.736Z,99487.38
2023-07-26T05:32:28.397Z,99490.44
2023-07-26T05:34:56.073Z,99494.25
2023-07-26T05:37:25.377Z,99489.69
2023-07-26T05:39:53.298Z,99477.25
2023-07-26T05:42:20.889Z,99482.38
2023-07-26T05:44:48.477Z,99473.16
2023-07-26T05:47:16.127Z,99482.13
2023-07-26T05:49:43.915Z,99481.50
2023-07-26T05:52:11.525Z,99473.41
2023-07-26T05:54:39.255Z,99471.66
2023-07-26T05:57:07.329Z,99476.22
2023-07-26T05:59:34.912Z,99478.00
2023-07-26T06:02:02.672Z,99476.53
2023-07-26T06:04:30.325Z,99476.59
2023-07-26T06:06:58.067Z,99473.31
2023-07-26T06:09:27.181Z,99477.09
2023-07-26T06:11:57.260Z,99473.47
2023-07-26T06:14:26.465Z,99476.88
2023-07-26T06:16:54.492Z,99475.91
2023-07-26T06:19:23.670Z,99473.28
2023-07-26T06:21:51.263Z,99477.63
2023-07-26T06:24:19.214Z,99475.28
2023-07-26T06:26:46.877Z,99468.59
2023-07-26T06:29:15.180Z,99471.25
2023-07-26T06:31:43.630Z,99471.59
2023-07-26T06:34:11.559Z,99478.00
2023-07-26T06:36:39.505Z,99468.72
2023-07-26T06:39:07.217Z,99479.66
2023-07-26T06:41:35.335Z,99478.91
2023-07-26T06:44:03.209Z,99473.41
2023-07-26T06:46:30.926Z,99474.44
2023-07-26T06:48:58.716Z,99471.25
2023-07-26T06:51:26.445Z,99476.63
2023-07-26T06:53:54.218Z,99471.94
2023-07-26T06:56:24.109Z,99492.16
2023-07-26T06:58:52.096Z,99488.16
2023-07-26T07:01:19.845Z,99490.69
2023-07-26T07:03:50.535Z,99487.66
2023-07-26T07:06:23.957Z,99496.22
2023-07-26T07:08:51.564Z,99490.88
2023-07-26T07:11:19.214Z,99489.63
2023-07-26T07:13:46.933Z,99489.81
2023-07-26T07:16:15.012Z,99501.59
2023-07-26T07:18:43.371Z,99496.09
2023-07-26T07:21:11.102Z,99507.72
2023-07-26T07:23:38.800Z,99505.34
2023-07-26T07:26:06.905Z,99503.31
2023-07-26T07:28:34.653Z,99504.34
2023-07-26T07:31:02.879Z,99510.41
2023-07-26T07:33:31.315Z,99507.34
2023-07-26T07:35:59.147Z,99508.06
2023-07-26T07:38:26.771Z,99507.22
2023-07-26T07:40:54.521Z,99500.66
2023-07-26T07:43:22.664Z,99499.28
2023-07-26T07:45:50.680Z,99503.63
2023-07-26T07:48:18.924Z,99504.63
2023-07-26T07:50:47.085Z,99507.28
2023-07-26T07:53:14.866Z,99504.88
2023-07-26T07:55:42.952Z,99509.59
2023-07-26T07:58:10.953Z,99511.22
2023-07-26T08:00:38.644Z,99509.19
2023-07-26T08:03:06.498Z,99506.13
2023-07-26T08:05:34.342Z,99495.69
2023-07-26T08:08:02.189Z,99500.41
2023-07-26T08:10:30.026Z,99504.25
2023-07-26T08:12:57.866Z,99501.69
2023-07-26T08:15:25.627Z,99508.88
2023-07-26T08:17:53.614Z,99503.94
2023-07-26T08:20:21.994Z,99499.09
2023-07-26T08:22:49.740Z,99498.97
2023-07-26T08:25:18.019Z,99500.88
2023-07-26T08:27:45.876Z,99507.72
2023-07-26T08:30:13.866Z,99501.63
2023-07-26T08:32:43.258Z,99497.34
2023-07-26T08:35:11.217Z,99508.59
2023-07-26T08:37:39.006Z,99512.06
2023-07-26T08:40:08.093Z,99506.78
2023-07-26T08:42:35.926Z,99514.97
2023-07-26T08:45:04.759Z,99505.50
2023-07-26T08:47:32.548Z,99508.53
2023-07-26T08:50:00.558Z,99502.50
2023-07-26T08:52:28.334Z,99506.53
2023-07-26T08:54:56.774Z,99508.41
2023-07-26T08:57:25.111Z,99506.69
2023-07-26T08:59:52.819Z,99504.66
2023-07-26T09:02:20.722Z,99502.16
2023-07-26T09:04:48.654Z,99499.00
2023-07-26T09:07:16.537Z,99509.91
2023-07-26T09:09:44.840Z,99504.22
2023-07-26T09:12:12.915Z,99491.44
2023-07-26T09:14:40.744Z,99498.34
2023-07-26T09:17:08.985Z,99486.03
2023-07-26T09:19:36.831Z,99494.56
2023-07-26T09:22:04.604Z,99486.09
2023-07-26T09:24:34.880Z,99482.56
2023-07-26T09:27:02.947Z,99486.88
2023-07-26T09:29:30.634Z,99485.59
2023-07-26T09:31:58.496Z,99482.25
2023-07-26T09:34:26.613Z,99486.34
2023-07-26T09:36:56.159Z,99477.28
2023-07-26T09:39:24.054Z,99475.38
2023-07-26T09:41:54.927Z,99474.81
2023-07-26T09:44:23.267Z,99481.75
2023-07-26T09:46:51.556Z,99476.19
2023-07-26T09:54:32.928Z,99471.25
2023-07-26T09:57:01.424Z,99477.00
2023-07-26T09:59:29.637Z,99470.16
2023-07-26T10:01:57.450Z,99471.41
2023-07-26T10:04:25.404Z,99474.16
2023-07-26T10:06:53.438Z,99470.19
2023-07-26T10:09:21.557Z,99473.06
2023-07-26T10:11:49.511Z,99465.66
2023-07-26T10:14:17.521Z,99467.25
2023-07-26T10:16:45.408Z,99492.50
2023-07-26T10:19:13.624Z,99529.88
2023-07-26T10:21:43.222Z,99565.47
2023-07-26T10:24:11.160Z,99589.13
2023-07-26T10:26:39.189Z,99597.88
2023-07-26T10:29:07.145Z,99601.59
2023-07-26T10:31:35.104Z,99607.19
2023-07-26T10:34:03.857Z,99597.72
2023-07-26T10:36:32.189Z,99601.84
2023-07-26T10:39:00.336Z,99605.28
2023-07-26T10:41:28.112Z,99601.09
2023-07-26T10:43:58.920Z,99596.13
2023-07-26T10:46:28.442Z,99597.16
2023-07-26T10:48:56.341Z,99588.91
2023-07-26T10:51:24.316Z,99580.78
2023-07-26T10:53:53.578Z,99573.66
2023-07-26T10:56:21.451Z,99576.94
2023-07-26T10:58:49.839Z,99569.22
2023-07-26T11:01:17.710Z,99556.84
2023-07-26T11:03:45.571Z,99564.00
2023-07-26T11:06:13.546Z,99563.00
2023-07-26T11:08:41.496Z,99567.63
2023-07-26T11:11:09.345Z,99568.84
2023-07-26T11:13:37.365Z,99569.91
2023-07-26T11:16:15.317Z,99567.88
2023-07-26T11:18:47.811Z,99560.00
2023-07-26T11:21:16.101Z,99553.38
2023-07-26T11:23:43.918Z,99549.38
2023-07-26T11:26:12.634Z,99545.16
2023-07-26T11:28:40.560Z,99538.25
2023-07-26T11:31:08.701Z,99533.97
2023-07-26T11:33:36.945Z,99521.13
2023-07-26T11:36:05.278Z,99514.63
2023-07-26T11:38:33.137Z,99512.38
2023-07-26T11:41:01.080Z,99517.22
2023-07-26T11:43:29.574Z,99500.88
2023-07-26T11:45:58.093Z,99503.06
2023-07-26T11:48:27.586Z,99504.34
2023-07-26T11:50:55.474Z,99500.91
2023-07-26T11:53:31.903Z,99491.66
2023-07-26T11:56:09.190Z,99491.31
2023-07-26T11:58:37.009Z,99489.97
2023-07-26T12:01:05.246Z,99495.88
2023-07-26T12:03:33.766Z,99495.47
2023-07-26T12:06:06.550Z,99497.50
2023-07-26T12:08:36.813Z,99496.31
2023-07-26T12:11:07.704Z,99495.41
2023-07-26T12:13:36.008Z,99503.44
2023-07-26T12:16:04.297Z,99492.78
2023-07-26T12:18:32.576Z,99493.00
2023-07-26T12:21:03.652Z,99492.75
2023-07-26T12:23:33.696Z,99495.75
2023-07-26T12:26:01.583Z,99493.44
2023-07-26T12:28:29.551Z,99482.38
2023-07-26T12:30:58.032Z,99476.03
2023-07-26T12:33:25.916Z,99477.41
2023-07-26T12:35:53.858Z,99476.25
2023-07-26T12:38:23.252Z,99485.00
2023-07-26T12:40:51.055Z,99476.38
2023-07-26T12:43:18.853Z,99473.19
2023-07-26T12:45:46.914Z,99471.59
2023-07-26T12:48:14.717Z,99478.22
2023-07-26T12:50:43.039Z,99485.78
2023-07-26T12:53:11.608Z,99478.53
2023-07-26T12:55:39.804Z,99480.88
2023-07-26T12:58:07.611Z,99476.19
2023-07-26T13:00:35.621Z,99485.13
2023-07-26T13:03:03.711Z,99490.81
2023-07-26T13:05:31.813Z,99488.44
2023-07-26T13:07:59.778Z,99475.88
2023-07-26T13:10:28.008Z,99466.75
2023-07-26T13:12:56.083Z,99473.06
2023-07-26T13:15:23.921Z,99474.59
2023-07-26T13:17:52.114Z,99472.09
2023-07-26T13:20:19.967Z,99470.66
2023-07-26T13:22:48.033Z,99472.03
2023-07-26T13:25:15.976Z,99485.50
2023-07-26T13:27:44.180Z,99479.31
2023-07-26T13:30:12.317Z,99497.81
2023-07-26T13:32:40.254Z,99506.59
2023-07-26T13:35:09.745Z,99558.38
2023-07-26T13:37:38.476Z,99572.81
2023-07-26T13:40:07.391Z,99579.66
2023-07-26T13:42:35.473Z,99588.09
2023-07-26T13:45:03.380Z,99591.84
2023-07-26T13:47:33.332Z,99587.28
2023-07-26T13:50:01.364Z,99590.53
2023-07-26T13:52:29.412Z,99585.66
2023-07-26T13:54:57.265Z,99581.22
2023-07-26T13:57:25.253Z,99568.78
2023-07-26T13:59:53.345Z,99564.38
2023-07-26T14:02:21.131Z,99558.50
2023-07-26T14:04:49.167Z,99557.34
2023-07-26T14:07:18.629Z,99561.56
2023-07-26T14:09:47.530Z,99559.91
2023-07-26T14:12:17.226Z,99561.31
2023-07-26T14:14:45.270Z,99551.00
2023-07-26T14:17:13.721Z,99557.78
2023-07-26T14:19:41.696Z,99560.13
2023-07-26T14:22:09.849Z,99549.53
2023-07-26T14:24:38.025Z,99548.34
2023-07-26T14:27:07.743Z,99533.53
2023-07-26T14:29:35.821Z,99535.38
2023-07-26T14:32:03.662Z,99528.09
2023-07-26T14:34:32.668Z,99538.31
2023-07-26T14:37:00.609Z,99529.97
2023-07-26T14:39:28.536Z,99530.78
2023-07-26T14:41:58.120Z,99532.84
2023-07-26T14:44:26.099Z,99529.56
2023-07-26T14:46:53.972Z,99527.31
2023-07-26T14:49:24.545Z,99522.97
2023-07-26T14:51:52.446Z,99519.25
2023-07-26T14:54:20.266Z,99524.09
2023-07-26T14:57:00.461Z,99513.75
2023-07-26T14:59:37.662Z,99514.34
2023-07-26T15:02:05.549Z,99520.16
2023-07-26T15:04:33.542Z,99514.03
2023-07-26T15:07:01.685Z,99516.28
2023-07-26T15:09:29.559Z,99518.06
2023-07-26T15:11:58.699Z,99520.09
2023-07-26T15:14:26.824Z,99520.81
2023-07-26T15:16:54.854Z,99529.66
2023-07-26T15:19:23.324Z,99531.84
2023-07-26T15:21:51.584Z,99526.84
2023-07-26T15:24:19.625Z,99525.19
2023-07-26T15:26:47.514Z,99520.13
2023-07-26T15:29:15.812Z,99522.34
2023-07-26T15:31:43.702Z,99520.78
2023-07-26T15:34:11.675Z,99515.84
2023-07-26T15:36:39.768Z,99508.72
2023-07-26T15:39:09.759Z,99500.03
2023-07-26T15:42:06.683Z,99499.72
2023-07-26T15:49:28.126Z,99506.31
2023-07-26T15:51:56.115Z,99503.94
2023-07-26T15:54:23.960Z,99503.66
2023-07-26T15:56:51.825Z,99511.09
2023-07-26T15:59:19.914Z,99503.41
2023-07-26T16:01:47.763Z,99509.34
2023-07-26T16:21:57.619Z,99500.72
2023-07-26T16:24:26.060Z,99490.88
2023-07-26T16:26:54.095Z,99485.66
2023-07-26T16:29:21.870Z,99484.50
2023-07-26T16:31:49.835Z,99480.41
2023-07-26T16:34:18.606Z,99479.19
2023-07-26T16:36:46.473Z,99485.41
2023-07-26T16:39:14.719Z,99481.22
2023-07-26T16:41:42.691Z,99487.84
2023-07-26T16:44:10.604Z,99496.75
2023-07-26T16:46:58.025Z,99488.41
2023-07-26T16:49:28.017Z,99496.66
2023-07-26T16:51:55.965Z,99480.34
2023-07-26T16:54:24.204Z,99489.81
2023-07-26T16:56:52.148Z,99483.34
2023-07-26T16:59:20.092Z,99488.88
2023-07-26T17:01:47.923Z,99489.66
2023-07-26T17:04:15.730Z,99491.47
2023-07-26T17:06:44.118Z,99482.47
2023-07-26T17:09:12.280Z,99496.63
2023-07-26T17:11:40.283Z,99486.53
2023-07-26T17:14:08.120Z,99479.41
2023-07-26T17:16:36.361Z,99479.34
2023-07-26T17:19:04.910Z,99472.84
2023-07-26T17:21:32.744Z,99472.56
2023-07-26T17:24:00.594Z,99487.63
2023-07-26T17:26:31.970Z,99481.75
2023-07-26T17:29:00.497Z,99486.88
2023-07-26T17:31:29.113Z,99482.31
2023-07-26T17:33:57.413Z,99481.09
2023-07-26T17:36:25.303Z,99485.66
2023-07-26T17:38:53.238Z,99482.50
2023-07-26T17:41:21.380Z,99481.44
2023-07-26T17:43:50.350Z,99481.56
2023-07-26T17:46:18.323Z,99484.22
2023-07-26T17:48:46.469Z,99484.94
2023-07-26T17:51:14.901Z,99483.66
2023-07-26T17:53:42.763Z,99484.03
2023-07-26T17:56:14.164Z,99493.56
2023-07-26T17:58:42.066Z,99499.34
2023-07-26T18:01:09.954Z,99495.34
2023-07-26T18:03:40.089Z,99494.06
2023-07-26T18:06:09.026Z,99511.69
2023-07-26T18:08:38.415Z,99505.00
2023-07-26T18:11:06.911Z,99510.97
2023-07-26T18:13:36.781Z,99506.31
2023-07-26T18:16:04.725Z,99505.88
2023-07-26T18:18:33.044Z,99508.28
2023-07-26T18:21:00.936Z,99509.88
2023-07-26T18:23:28.796Z,99516.88
2023-07-26T18:25:56.698Z,99517.63
2023-07-26T18:28:24.472Z,99526.47
2023-07-26T18:30:52.510Z,99528.72
2023-07-26T18:33:20.722Z,99527.44
2023-07-26T18:35:48.684Z,99525.59
2023-07-26T18:38:16.616Z,99529.25
2023-07-26T18:40:44.620Z,99531.66
2023-07-26T18:43:13.656Z,99534.28
2023-07-26T18:45:43.265Z,99534.53
2023-07-26T18:48:11.865Z,99541.69
2023-07-26T18:50:39.785Z,99542.97
2023-07-26T18:53:07.874Z,99540.34
2023-07-26T18:55:36.499Z,99537.06
2023-07-26T18:58:04.896Z,99549.59
2023-07-26T19:00:32.724Z,99551.50
2023-07-26T19:03:01.324Z,99548.19
2023-07-26T19:05:29.325Z,99552.81
2023-07-26T19:07:57.929Z,99553.72
2023-07-26T19:10:28.714Z,99552.91
2023-07-26T19:12:56.965Z,99555.50
2023-07-26T19:15:24.859Z,99549.31
2023-07-26T19:17:53.475Z,99557.44
2023-07-26T19:20:21.370Z,99559.81
2023-07-26T19:22:49.275Z,99552.47
2023-07-26T19:25:17.196Z,99555.84
2023-07-26T19:27:45.060Z,99544.94
2023-07-26T19:30:13.134Z,99557.25
2023-07-26T19:32:41.172Z,99551.88
2023-07-26T19:35:10.480Z,99559.63
2023-07-26T19:37:39.655Z,99557.69
2023-07-26T19:40:07.529Z,99554.69
2023-07-26T19:42:35.346Z,99569.69
2023-07-26T19:45:04.101Z,99561.13
2023-07-26T19:47:32.178Z,99563.50
2023-07-26T19:50:00.206Z,99565.50
2023-07-26T19:52:28.335Z,99569.19
2023-07-26T19:54:56.259Z,99560.44
2023-07-26T19:57:26.256Z,99558.75
2023-07-26T19:59:54.307Z,99567.66
2023-07-26T20:02:22.730Z,99574.53
2023-07-26T20:04:50.671Z,99566.31
2023-07-26T20:07:18.420Z,99562.59
2023-07-26T20:09:46.218Z,99565.78
2023-07-26T20:12:14.023Z,99568.09
2023-07-26T20:14:41.883Z,99561.38
2023-07-26T20:17:09.844Z,99563.72
2023-07-26T20:19:37.608Z,99562.38
2023-07-26T20:22:05.477Z,99561.19
2023-07-26T20:24:34.976Z,99565.03
2023-07-26T20:27:02.910Z,99574.44
2023-07-26T20:29:30.700Z,99572.22
2023-07-26T20:31:58.629Z,99569.84
2023-07-26T20:34:26.464Z,99569.19
2023-07-26T20:36:54.338Z,99563.97
2023-07-26T20:39:22.228Z,99568.81
2023-07-26T20:41:50.066Z,99565.47
2023-07-26T20:44:17.922Z,99558.56
2023-07-26T20:46:46.806Z,99557.03
2023-07-26T20:49:15.709Z,99564.56
2023-07-26T20:51:43.445Z,99556.88
2023-07-26T20:54:11.356Z,99558.13
2023-07-26T20:56:39.230Z,99559.31
2023-07-26T20:59:07.021Z,99553.44
2023-07-26T21:01:35.523Z,99553.75
2023-07-26T21:04:03.614Z,99548.72
2023-07-26T21:06:31.375Z,99549.00
2023-07-26T21:08:59.424Z,99542.31
2023-07-26T21:11:27.234Z,99550.66
2023-07-26T21:13:55.047Z,99541.94
2023-07-26T21:16:22.953Z,99542.28
2023-07-26T21:18:50.685Z,99540.06
2023-07-26T21:21:18.757Z,99538.69
2023-07-26T21:23:46.677Z,99537.00
2023-07-26T21:26:14.609Z,99533.66
2023-07-26T21:28:42.419Z,99533.66
2023-07-26T21:31:11.583Z,99523.94
2023-07-26T21:33:39.361Z,99527.63
2023-07-26T21:36:07.134Z,99528.44
2023-07-26T21:38:35.049Z,99525.09
2023-07-26T21:41:03.756Z,99528.78
2023-07-26T21:43:31.549Z,99516.38
2023-07-26T21:45:59.368Z,99520.88
2023-07-26T21:48:27.197Z,99515.53
2023-07-26T21:50:55.205Z,99514.66
2023-07-26T21:53:23.367Z,99507.63
2023-07-26T21:55:51.140Z,99505.13
2023-07-26T21:58:18.937Z,99507.28
2023-07-26T22:00:47.288Z,99514.81
2023-07-26T22:03:15.653Z,99506.06
2023-07-26T22:05:43.370Z,99506.25
2023-07-26T22:08:11.167Z,99504.38
2023-07-26T22:10:39.025Z,99496.19
2023-07-26T22:13:06.778Z,99489.69
2023-07-26T22:15:36.347Z,99496.56
2023-07-26T22:18:04.669Z,99496.22
2023-07-26T22:20:32.423Z,99491.53
2023-07-26T22:23:00.180Z,99490.25
2023-07-26T22:25:27.894Z,99485.41
2023-07-26T22:27:55.590Z,99487.59
2023-07-26T22:30:23.290Z,99489.47
2023-07-26T22:32:51.065Z,99487.00
2023-07-26T22:35:18.843Z,99480.13
2023-07-26T22:37:46.464Z,99477.63
2023-07-26T22:40:14.278Z,99472.63
2023-07-26T22:42:41.935Z,99468.31
2023-07-26T22:45:10.558Z,99470.50
2023-07-26T22:47:38.201Z,99470.00
2023-07-26T22:50:06.228Z,99464.16
2023-07-26T22:52:33.831Z,99460.16
2023-07-26T22:55:01.450Z,99464.16
2023-07-26T22:57:29.509Z,99455.81
2023-07-26T22:59:57.154Z,99454.94
2023-07-26T23:02:25.106Z,99455.28
2023-07-26T23:04:52.746Z,99445.72
2023-07-26T23:07:20.400Z,99446.22
2023-07-26T23:09:47.997Z,99445.56
2023-07-26T23:12:15.553Z,99429.75
2023-07-26T23:14:43.179Z,99429.25
2023-07-26T23:17:10.780Z,99427.94
2023-07-26T23:19:38.769Z,99425.78
2023-07-26T23:22:07.275Z,99416.72
2023-07-26T23:24:34.907Z,99409.31
2023-07-26T23:27:02.616Z,99414.19
2023-07-26T23:29:30.180Z,99404.97
2023-07-26T23:31:57.911Z,99403.13
2023-07-26T23:34:25.562Z,99396.75
2023-07-26T23:36:53.231Z,99394.56
2023-07-26T23:39:20.863Z,99387.53
2023-07-26T23:41:49.708Z,99392.91
2023-07-26T23:44:17.380Z,99392.41
2023-07-26T23:46:45.022Z,99385.31
2023-07-26T23:49:12.741Z,99375.78
2023-07-26T23:51:40.357Z,99375.78
2023-07-26T23:54:07.950Z,99373.91
2023-07-26T23:56:37.128Z,99366.88
2023-07-26T23:59:04.868Z,99372.59
